KPDT/PDT METAR and TAF weather

Enter ICAO airport designator
Station Type Date Time Source
KPDT METAR 2019/08/22 19:53 UTC NOAA

KPDT 221953Z 28008G16KT 10SM CLR 25/08 A2997 RMK AO2 SLP134 T02500078


Station Type Date Time Source
KPDT Decoded METAR 2019/08/22 19:53 UTC NOAA

Station name not available
Aug 22, 2019 - 03:53 PM EDT / 2019.08.22 1953 UTC
Wind: from the W (280 degrees) at 9 MPH (8 KT) gusting to 18 MPH (16 KT):0
Visibility: 10 mile(s):0
Sky conditions: clear
Temperature: 77.0 F (25.0 C)
Dew Point: 46.0 F (7.8 C)
Relative Humidity: 33%
Pressure (altimeter): 29.97 in. Hg (1014 hPa)
ob: KPDT 221953Z 28008G16KT 10SM CLR 25/08 A2997 RMK AO2 SLP134 T02500078
cycle: 20

Station Type Date Time Source
KPDT TAF 2019/08/22 18:27 UTC NOAA

TAF KPDT 221723Z 2218/2318 27011KT P6SM FEW060
FM222000 28011KT P6SM SKC
FM230300 VRB06KT P6SM SKC
FM230600 13005KT P6SM SKC
FM231600 VRB05KT P6SM FEW200

Example: see airport list